sensor_id;sensor_type;location;lat;lon;timestamp;P1;durP1;ratioP1;P2;durP2;ratioP2
53835;SDS011;39737;43.334;21.936;2023-04-25T00:01:15;2.05;;;1.40;;
53835;SDS011;39737;43.334;21.936;2023-04-25T00:04:02;3.53;;;1.50;;
53835;SDS011;39737;43.334;21.936;2023-04-25T00:06:48;1.23;;;1.00;;
53835;SDS011;39737;43.334;21.936;2023-04-25T00:09:34;1.38;;;1.17;;
53835;SDS011;39737;43.334;21.936;2023-04-25T00:12:20;1.83;;;1.27;;
53835;SDS011;39737;43.334;21.936;2023-04-25T00:15:08;10.18;;;3.30;;
53835;SDS011;39737;43.334;21.936;2023-04-25T00:17:55;16.55;;;3.83;;
53835;SDS011;39737;43.334;21.936;2023-04-25T00:20:41;1.48;;;1.13;;
53835;SDS011;39737;43.334;21.936;2023-04-25T00:23:32;1.13;;;0.73;;
53835;SDS011;39737;43.334;21.936;2023-04-25T00:26:18;1.48;;;0.98;;
53835;SDS011;39737;43.334;21.936;2023-04-25T00:29:04;1.02;;;0.90;;
53835;SDS011;39737;43.334;21.936;2023-04-25T00:31:50;1.55;;;0.95;;
53835;SDS011;39737;43.334;21.936;2023-04-25T00:34:36;2.05;;;0.75;;
53835;SDS011;39737;43.334;21.936;2023-04-25T00:37:22;2.92;;;1.10;;
53835;SDS011;39737;43.334;21.936;2023-04-25T00:40:09;1.27;;;0.80;;
53835;SDS011;39737;43.334;21.936;2023-04-25T00:42:56;2.63;;;0.50;;
53835;SDS011;39737;43.334;21.936;2023-04-25T00:45:42;1.33;;;0.82;;
53835;SDS011;39737;43.334;21.936;2023-04-25T00:48:28;4.22;;;1.75;;
53835;SDS011;39737;43.334;21.936;2023-04-25T00:51:16;2.55;;;1.73;;
53835;SDS011;39737;43.334;21.936;2023-04-25T00:54:02;3.22;;;1.05;;
53835;SDS011;39737;43.334;21.936;2023-04-25T00:56:48;0.85;;;0.85;;
53835;SDS011;39737;43.334;21.936;2023-04-25T00:59:34;1.35;;;1.02;;
53835;SDS011;39737;43.334;21.936;2023-04-25T01:02:21;1.10;;;0.80;;
53835;SDS011;39737;43.334;21.936;2023-04-25T01:05:08;1.15;;;0.93;;
53835;SDS011;39737;43.334;21.936;2023-04-25T01:07:54;2.67;;;1.20;;
53835;SDS011;39737;43.334;21.936;2023-04-25T01:10:40;1.40;;;1.13;;
53835;SDS011;39737;43.334;21.936;2023-04-25T01:13:27;3.72;;;1.88;;
53835;SDS011;39737;43.334;21.936;2023-04-25T01:16:13;3.00;;;1.27;;
53835;SDS011;39737;43.334;21.936;2023-04-25T01:19:00;2.13;;;1.27;;
53835;SDS011;39737;43.334;21.936;2023-04-25T01:21:46;2.53;;;1.55;;
53835;SDS011;39737;43.334;21.936;2023-04-25T01:24:33;3.22;;;2.00;;
53835;SDS011;39737;43.334;21.936;2023-04-25T01:27:19;1.00;;;0.85;;
53835;SDS011;39737;43.334;21.936;2023-04-25T01:30:06;0.85;;;0.85;;
53835;SDS011;39737;43.334;21.936;2023-04-25T01:32:56;1.45;;;1.05;;
53835;SDS011;39737;43.334;21.936;2023-04-25T01:35:43;4.30;;;1.17;;
53835;SDS011;39737;43.334;21.936;2023-04-25T01:38:29;2.60;;;0.85;;
53835;SDS011;39737;43.334;21.936;2023-04-25T01:41:15;1.70;;;1.10;;
53835;SDS011;39737;43.334;21.936;2023-04-25T01:44:02;2.40;;;1.33;;
53835;SDS011;39737;43.334;21.936;2023-04-25T01:46:49;3.63;;;1.83;;
53835;SDS011;39737;43.334;21.936;2023-04-25T01:49:35;0.75;;;0.75;;
53835;SDS011;39737;43.334;21.936;2023-04-25T01:52:21;2.03;;;0.95;;
53835;SDS011;39737;43.334;21.936;2023-04-25T01:55:08;1.48;;;1.10;;
53835;SDS011;39737;43.334;21.936;2023-04-25T01:57:57;0.80;;;0.80;;
53835;SDS011;39737;43.334;21.936;2023-04-25T02:00:58;1.15;;;0.90;;
53835;SDS011;39737;43.334;21.936;2023-04-25T02:03:49;3.65;;;0.85;;
53835;SDS011;39737;43.334;21.936;2023-04-25T02:06:43;3.13;;;1.02;;
53835;SDS011;39737;43.334;21.936;2023-04-25T02:09:31;1.73;;;1.02;;
53835;SDS011;39737;43.334;21.936;2023-04-25T02:12:17;1.35;;;1.00;;
53835;SDS011;39737;43.334;21.936;2023-04-25T02:15:22;0.80;;;0.68;;
53835;SDS011;39737;43.334;21.936;2023-04-25T02:18:15;0.88;;;0.88;;
53835;SDS011;39737;43.334;21.936;2023-04-25T02:21:05;2.05;;;0.95;;
53835;SDS011;39737;43.334;21.936;2023-04-25T02:23:51;2.45;;;1.52;;
53835;SDS011;39737;43.334;21.936;2023-04-25T02:26:38;2.42;;;1.63;;
53835;SDS011;39737;43.334;21.936;2023-04-25T02:29:26;1.75;;;1.02;;
53835;SDS011;39737;43.334;21.936;2023-04-25T02:32:12;1.55;;;1.15;;
53835;SDS011;39737;43.334;21.936;2023-04-25T02:34:58;1.63;;;1.23;;
53835;SDS011;39737;43.334;21.936;2023-04-25T02:37:49;2.67;;;2.08;;
53835;SDS011;39737;43.334;21.936;2023-04-25T02:40:35;2.83;;;2.00;;
53835;SDS011;39737;43.334;21.936;2023-04-25T02:43:21;2.22;;;1.65;;
53835;SDS011;39737;43.334;21.936;2023-04-25T02:46:09;2.60;;;1.42;;
53835;SDS011;39737;43.334;21.936;2023-04-25T02:48:57;2.17;;;1.20;;
53835;SDS011;39737;43.334;21.936;2023-04-25T02:51:43;2.13;;;1.13;;
53835;SDS011;39737;43.334;21.936;2023-04-25T02:54:30;1.25;;;1.05;;
53835;SDS011;39737;43.334;21.936;2023-04-25T02:57:16;7.13;;;1.17;;
53835;SDS011;39737;43.334;21.936;2023-04-25T03:00:05;1.75;;;1.23;;
53835;SDS011;39737;43.334;21.936;2023-04-25T03:02:53;0.80;;;0.80;;
53835;SDS011;39737;43.334;21.936;2023-04-25T03:05:39;0.80;;;0.80;;
53835;SDS011;39737;43.334;21.936;2023-04-25T03:08:25;1.45;;;1.20;;
53835;SDS011;39737;43.334;21.936;2023-04-25T03:11:15;1.75;;;1.02;;
53835;SDS011;39737;43.334;21.936;2023-04-25T03:14:01;2.17;;;1.08;;
53835;SDS011;39737;43.334;21.936;2023-04-25T03:16:47;1.40;;;1.20;;
53835;SDS011;39737;43.334;21.936;2023-04-25T03:19:35;3.25;;;1.10;;
53835;SDS011;39737;43.334;21.936;2023-04-25T03:22:21;2.00;;;1.00;;
53835;SDS011;39737;43.334;21.936;2023-04-25T03:25:09;1.77;;;1.23;;
53835;SDS011;39737;43.334;21.936;2023-04-25T03:27:55;1.00;;;0.85;;
53835;SDS011;39737;43.334;21.936;2023-04-25T03:30:41;2.25;;;1.25;;
53835;SDS011;39737;43.334;21.936;2023-04-25T03:33:27;5.78;;;3.20;;
53835;SDS011;39737;43.334;21.936;2023-04-25T03:36:14;3.17;;;2.42;;
53835;SDS011;39737;43.334;21.936;2023-04-25T03:39:00;1.35;;;1.20;;
53835;SDS011;39737;43.334;21.936;2023-04-25T03:41:48;1.35;;;1.00;;
53835;SDS011;39737;43.334;21.936;2023-04-25T03:44:37;0.93;;;0.82;;
53835;SDS011;39737;43.334;21.936;2023-04-25T03:47:23;0.90;;;0.88;;
53835;SDS011;39737;43.334;21.936;2023-04-25T03:50:09;0.75;;;0.75;;
53835;SDS011;39737;43.334;21.936;2023-04-25T03:52:56;1.35;;;0.90;;
53835;SDS011;39737;43.334;21.936;2023-04-25T03:56:00;2.50;;;1.08;;
53835;SDS011;39737;43.334;21.936;2023-04-25T03:58:50;0.75;;;0.68;;
53835;SDS011;39737;43.334;21.936;2023-04-25T04:01:38;0.90;;;0.88;;
53835;SDS011;39737;43.334;21.936;2023-04-25T04:04:24;1.83;;;1.20;;
53835;SDS011;39737;43.334;21.936;2023-04-25T04:07:11;0.68;;;0.68;;
53835;SDS011;39737;43.334;21.936;2023-04-25T04:10:00;2.15;;;1.27;;
53835;SDS011;39737;43.334;21.936;2023-04-25T04:12:52;1.65;;;1.45;;
53835;SDS011;39737;43.334;21.936;2023-04-25T04:15:38;2.13;;;1.65;;
53835;SDS011;39737;43.334;21.936;2023-04-25T04:18:24;2.65;;;2.13;;
53835;SDS011;39737;43.334;21.936;2023-04-25T04:21:12;2.00;;;1.15;;
53835;SDS011;39737;43.334;21.936;2023-04-25T04:23:59;0.98;;;0.93;;
53835;SDS011;39737;43.334;21.936;2023-04-25T04:26:48;2.17;;;1.35;;
53835;SDS011;39737;43.334;21.936;2023-04-25T04:29:48;2.05;;;1.65;;
53835;SDS011;39737;43.334;21.936;2023-04-25T04:32:55;1.42;;;1.33;;
53835;SDS011;39737;43.334;21.936;2023-04-25T04:35:42;1.20;;;0.93;;
53835;SDS011;39737;43.334;21.936;2023-04-25T04:38:29;3.75;;;2.20;;
53835;SDS011;39737;43.334;21.936;2023-04-25T04:41:19;3.63;;;2.40;;
53835;SDS011;39737;43.334;21.936;2023-04-25T04:44:14;6.40;;;4.38;;
53835;SDS011;39737;43.334;21.936;2023-04-25T04:47:21;2.80;;;1.60;;
53835;SDS011;39737;43.334;21.936;2023-04-25T04:50:22;2.83;;;1.73;;
53835;SDS011;39737;43.334;21.936;2023-04-25T04:53:34;0.95;;;0.88;;
53835;SDS011;39737;43.334;21.936;2023-04-25T04:56:32;4.50;;;1.27;;
53835;SDS011;39737;43.334;21.936;2023-04-25T04:59:33;8.15;;;2.13;;
53835;SDS011;39737;43.334;21.936;2023-04-25T05:02:37;6.47;;;2.30;;
53835;SDS011;39737;43.334;21.936;2023-04-25T05:06:00;4.75;;;2.83;;
53835;SDS011;39737;43.334;21.936;2023-04-25T05:09:08;15.00;;;3.95;;
53835;SDS011;39737;43.334;21.936;2023-04-25T05:12:21;2.78;;;1.67;;
53835;SDS011;39737;43.334;21.936;2023-04-25T05:15:13;3.10;;;1.85;;
53835;SDS011;39737;43.334;21.936;2023-04-25T05:18:13;6.97;;;2.20;;
53835;SDS011;39737;43.334;21.936;2023-04-25T05:21:25;16.67;;;7.40;;
53835;SDS011;39737;43.334;21.936;2023-04-25T05:24:25;18.58;;;6.97;;
53835;SDS011;39737;43.334;21.936;2023-04-25T05:27:26;12.35;;;6.97;;
53835;SDS011;39737;43.334;21.936;2023-04-25T05:30:24;12.93;;;6.55;;
53835;SDS011;39737;43.334;21.936;2023-04-25T05:33:36;3.10;;;1.85;;
53835;SDS011;39737;43.334;21.936;2023-04-25T05:36:23;4.60;;;1.70;;
53835;SDS011;39737;43.334;21.936;2023-04-25T05:39:09;4.38;;;1.35;;
53835;SDS011;39737;43.334;21.936;2023-04-25T05:42:14;9.48;;;5.47;;
53835;SDS011;39737;43.334;21.936;2023-04-25T05:45:03;10.75;;;4.43;;
53835;SDS011;39737;43.334;21.936;2023-04-25T05:47:57;5.88;;;4.57;;
53835;SDS011;39737;43.334;21.936;2023-04-25T05:50:56;4.15;;;2.90;;
53835;SDS011;39737;43.334;21.936;2023-04-25T05:54:03;10.98;;;3.90;;
53835;SDS011;39737;43.334;21.936;2023-04-25T05:56:51;10.52;;;3.03;;
53835;SDS011;39737;43.334;21.936;2023-04-25T05:59:37;8.65;;;3.20;;
53835;SDS011;39737;43.334;21.936;2023-04-25T06:02:23;7.22;;;2.50;;
53835;SDS011;39737;43.334;21.936;2023-04-25T06:05:11;3.95;;;2.50;;
53835;SDS011;39737;43.334;21.936;2023-04-25T06:07:57;3.40;;;1.90;;
53835;SDS011;39737;43.334;21.936;2023-04-25T06:10:44;6.80;;;3.55;;
53835;SDS011;39737;43.334;21.936;2023-04-25T06:13:33;10.88;;;5.13;;
53835;SDS011;39737;43.334;21.936;2023-04-25T06:16:19;5.30;;;2.72;;
53835;SDS011;39737;43.334;21.936;2023-04-25T06:19:05;3.85;;;1.92;;
53835;SDS011;39737;43.334;21.936;2023-04-25T06:21:52;3.25;;;2.03;;
53835;SDS011;39737;43.334;21.936;2023-04-25T06:24:38;5.70;;;2.58;;
53835;SDS011;39737;43.334;21.936;2023-04-25T06:27:25;5.18;;;2.20;;
53835;SDS011;39737;43.334;21.936;2023-04-25T06:30:11;5.13;;;2.83;;
53835;SDS011;39737;43.334;21.936;2023-04-25T06:33:00;6.95;;;3.20;;
53835;SDS011;39737;43.334;21.936;2023-04-25T06:36:05;3.85;;;1.50;;
53835;SDS011;39737;43.334;21.936;2023-04-25T06:38:51;2.40;;;1.58;;
53835;SDS011;39737;43.334;21.936;2023-04-25T06:41:38;5.47;;;1.65;;
53835;SDS011;39737;43.334;21.936;2023-04-25T06:44:27;3.28;;;1.70;;
53835;SDS011;39737;43.334;21.936;2023-04-25T06:47:16;2.53;;;1.35;;
53835;SDS011;39737;43.334;21.936;2023-04-25T06:50:02;3.60;;;1.73;;
53835;SDS011;39737;43.334;21.936;2023-04-25T06:52:48;6.30;;;1.83;;
53835;SDS011;39737;43.334;21.936;2023-04-25T06:55:36;3.22;;;2.13;;
53835;SDS011;39737;43.334;21.936;2023-04-25T06:58:31;3.17;;;1.80;;
53835;SDS011;39737;43.334;21.936;2023-04-25T07:01:39;6.85;;;3.15;;
53835;SDS011;39737;43.334;21.936;2023-04-25T07:04:34;5.80;;;3.22;;
53835;SDS011;39737;43.334;21.936;2023-04-25T07:07:20;4.95;;;2.92;;
53835;SDS011;39737;43.334;21.936;2023-04-25T07:10:13;6.07;;;3.40;;
53835;SDS011;39737;43.334;21.936;2023-04-25T07:13:08;5.32;;;3.08;;
53835;SDS011;39737;43.334;21.936;2023-04-25T07:15:56;6.78;;;3.10;;
53835;SDS011;39737;43.334;21.936;2023-04-25T07:18:42;6.75;;;2.63;;
53835;SDS011;39737;43.334;21.936;2023-04-25T07:21:38;6.60;;;2.67;;
53835;SDS011;39737;43.334;21.936;2023-04-25T07:24:35;7.07;;;3.53;;
53835;SDS011;39737;43.334;21.936;2023-04-25T07:27:23;7.45;;;3.40;;
53835;SDS011;39737;43.334;21.936;2023-04-25T07:30:13;7.40;;;3.47;;
53835;SDS011;39737;43.334;21.936;2023-04-25T07:33:00;5.50;;;3.25;;
53835;SDS011;39737;43.334;21.936;2023-04-25T07:35:46;6.57;;;3.50;;
53835;SDS011;39737;43.334;21.936;2023-04-25T07:38:32;4.60;;;2.83;;
53835;SDS011;39737;43.334;21.936;2023-04-25T07:41:19;9.65;;;5.30;;
53835;SDS011;39737;43.334;21.936;2023-04-25T07:44:06;3.38;;;2.30;;
53835;SDS011;39737;43.334;21.936;2023-04-25T07:46:53;4.70;;;2.47;;
53835;SDS011;39737;43.334;21.936;2023-04-25T07:49:43;2.85;;;2.20;;
53835;SDS011;39737;43.334;21.936;2023-04-25T07:52:40;2.70;;;1.70;;
53835;SDS011;39737;43.334;21.936;2023-04-25T07:55:36;3.70;;;1.83;;
53835;SDS011;39737;43.334;21.936;2023-04-25T07:58:33;3.72;;;2.03;;
53835;SDS011;39737;43.334;21.936;2023-04-25T08:04:18;3.08;;;1.77;;
53835;SDS011;39737;43.334;21.936;2023-04-25T08:07:11;6.93;;;2.42;;
53835;SDS011;39737;43.334;21.936;2023-04-25T08:10:16;4.30;;;2.35;;
53835;SDS011;39737;43.334;21.936;2023-04-25T08:13:09;2.53;;;1.45;;
53835;SDS011;39737;43.334;21.936;2023-04-25T08:15:55;1.05;;;0.82;;
53835;SDS011;39737;43.334;21.936;2023-04-25T08:18:41;2.33;;;1.30;;
53835;SDS011;39737;43.334;21.936;2023-04-25T08:21:27;5.38;;;1.13;;
53835;SDS011;39737;43.334;21.936;2023-04-25T08:24:17;2.10;;;1.10;;
53835;SDS011;39737;43.334;21.936;2023-04-25T08:27:04;2.30;;;1.50;;
53835;SDS011;39737;43.334;21.936;2023-04-25T08:29:51;3.22;;;1.95;;
53835;SDS011;39737;43.334;21.936;2023-04-25T08:32:38;3.08;;;1.10;;
53835;SDS011;39737;43.334;21.936;2023-04-25T08:35:47;3.10;;;1.67;;
53835;SDS011;39737;43.334;21.936;2023-04-25T08:38:33;5.75;;;1.50;;
53835;SDS011;39737;43.334;21.936;2023-04-25T08:41:21;1.58;;;0.98;;
53835;SDS011;39737;43.334;21.936;2023-04-25T08:44:09;1.65;;;0.98;;
53835;SDS011;39737;43.334;21.936;2023-04-25T08:46:56;4.13;;;1.40;;
53835;SDS011;39737;43.334;21.936;2023-04-25T08:49:46;2.70;;;2.00;;
53835;SDS011;39737;43.334;21.936;2023-04-25T08:52:37;9.70;;;2.53;;
53835;SDS011;39737;43.334;21.936;2023-04-25T08:55:23;3.58;;;2.03;;
53835;SDS011;39737;43.334;21.936;2023-04-25T08:58:14;2.42;;;1.33;;
53835;SDS011;39737;43.334;21.936;2023-04-25T09:01:00;3.95;;;1.30;;
53835;SDS011;39737;43.334;21.936;2023-04-25T09:03:51;4.60;;;1.38;;
53835;SDS011;39737;43.334;21.936;2023-04-25T09:06:37;1.48;;;1.10;;
53835;SDS011;39737;43.334;21.936;2023-04-25T09:09:23;4.30;;;1.27;;
53835;SDS011;39737;43.334;21.936;2023-04-25T09:12:09;1.95;;;1.30;;
53835;SDS011;39737;43.334;21.936;2023-04-25T09:15:03;2.13;;;1.45;;
53835;SDS011;39737;43.334;21.936;2023-04-25T09:18:10;2.63;;;1.70;;
53835;SDS011;39737;43.334;21.936;2023-04-25T09:21:08;3.05;;;1.92;;
53835;SDS011;39737;43.334;21.936;2023-04-25T09:24:02;2.67;;;1.55;;
53835;SDS011;39737;43.334;21.936;2023-04-25T09:26:48;4.13;;;1.60;;
53835;SDS011;39737;43.334;21.936;2023-04-25T09:29:35;4.05;;;1.60;;
53835;SDS011;39737;43.334;21.936;2023-04-25T09:32:22;6.65;;;1.83;;
53835;SDS011;39737;43.334;21.936;2023-04-25T09:35:11;2.13;;;1.50;;
53835;SDS011;39737;43.334;21.936;2023-04-25T09:38:11;3.13;;;1.70;;
53835;SDS011;39737;43.334;21.936;2023-04-25T09:41:21;6.55;;;3.95;;
53835;SDS011;39737;43.334;21.936;2023-04-25T09:44:08;2.55;;;1.75;;
53835;SDS011;39737;43.334;21.936;2023-04-25T09:46:55;13.50;;;6.05;;
53835;SDS011;39737;43.334;21.936;2023-04-25T09:49:45;4.65;;;2.58;;
53835;SDS011;39737;43.334;21.936;2023-04-25T09:52:44;5.65;;;1.85;;
53835;SDS011;39737;43.334;21.936;2023-04-25T09:55:40;2.63;;;1.35;;
53835;SDS011;39737;43.334;21.936;2023-04-25T09:58:32;7.00;;;2.22;;
53835;SDS011;39737;43.334;21.936;2023-04-25T10:01:19;0.60;;;0.60;;
53835;SDS011;39737;43.334;21.936;2023-04-25T10:04:24;0.65;;;0.65;;
53835;SDS011;39737;43.334;21.936;2023-04-25T10:07:20;0.50;;;0.50;;
53835;SDS011;39737;43.334;21.936;2023-04-25T10:10:09;0.60;;;0.60;;
53835;SDS011;39737;43.334;21.936;2023-04-25T10:12:55;3.45;;;1.13;;
53835;SDS011;39737;43.334;21.936;2023-04-25T10:15:41;4.55;;;3.03;;
53835;SDS011;39737;43.334;21.936;2023-04-25T10:18:28;2.05;;;1.50;;
53835;SDS011;39737;43.334;21.936;2023-04-25T10:21:14;0.30;;;0.30;;
53835;SDS011;39737;43.334;21.936;2023-04-25T10:24:01;3.38;;;1.58;;
53835;SDS011;39737;43.334;21.936;2023-04-25T10:26:48;1.52;;;1.40;;
53835;SDS011;39737;43.334;21.936;2023-04-25T10:29:35;0.30;;;0.30;;
53835;SDS011;39737;43.334;21.936;2023-04-25T10:32:21;0.80;;;0.80;;
53835;SDS011;39737;43.334;21.936;2023-04-25T10:38:14;2.25;;;1.92;;
53835;SDS011;39737;43.334;21.936;2023-04-25T10:41:07;2.67;;;2.05;;
53835;SDS011;39737;43.334;21.936;2023-04-25T10:43:59;1.40;;;1.27;;
53835;SDS011;39737;43.334;21.936;2023-04-25T10:46:47;4.05;;;2.15;;
53835;SDS011;39737;43.334;21.936;2023-04-25T10:49:34;1.67;;;1.50;;
53835;SDS011;39737;43.334;21.936;2023-04-25T10:52:25;1.95;;;1.25;;
53835;SDS011;39737;43.334;21.936;2023-04-25T10:55:12;7.53;;;1.48;;
53835;SDS011;39737;43.334;21.936;2023-04-25T10:57:58;3.13;;;2.17;;
53835;SDS011;39737;43.334;21.936;2023-04-25T11:00:44;3.88;;;2.40;;
53835;SDS011;39737;43.334;21.936;2023-04-25T11:03:43;3.65;;;2.45;;
53835;SDS011;39737;43.334;21.936;2023-04-25T11:06:35;7.55;;;2.92;;
53835;SDS011;39737;43.334;21.936;2023-04-25T11:09:23;3.67;;;2.50;;
53835;SDS011;39737;43.334;21.936;2023-04-25T11:12:10;4.60;;;2.75;;
53835;SDS011;39737;43.334;21.936;2023-04-25T11:15:01;5.50;;;3.22;;
53835;SDS011;39737;43.334;21.936;2023-04-25T11:17:50;5.55;;;3.00;;
53835;SDS011;39737;43.334;21.936;2023-04-25T11:20:43;3.42;;;2.72;;
53835;SDS011;39737;43.334;21.936;2023-04-25T11:23:48;3.90;;;3.42;;
53835;SDS011;39737;43.334;21.936;2023-04-25T11:26:35;3.53;;;2.97;;
53835;SDS011;39737;43.334;21.936;2023-04-25T11:29:23;4.40;;;3.42;;
53835;SDS011;39737;43.334;21.936;2023-04-25T11:32:10;5.07;;;3.13;;
53835;SDS011;39737;43.334;21.936;2023-04-25T11:34:56;6.43;;;3.88;;
53835;SDS011;39737;43.334;21.936;2023-04-25T11:37:44;7.72;;;4.28;;
53835;SDS011;39737;43.334;21.936;2023-04-25T11:40:30;7.35;;;4.18;;
53835;SDS011;39737;43.334;21.936;2023-04-25T11:43:17;11.02;;;3.85;;
53835;SDS011;39737;43.334;21.936;2023-04-25T11:46:06;6.70;;;4.28;;
53835;SDS011;39737;43.334;21.936;2023-04-25T11:48:53;5.97;;;3.85;;
53835;SDS011;39737;43.334;21.936;2023-04-25T11:51:41;5.15;;;3.85;;
53835;SDS011;39737;43.334;21.936;2023-04-25T11:54:29;5.13;;;3.75;;
53835;SDS011;39737;43.334;21.936;2023-04-25T11:57:41;4.90;;;3.70;;
53835;SDS011;39737;43.334;21.936;2023-04-25T12:00:27;11.25;;;5.25;;
53835;SDS011;39737;43.334;21.936;2023-04-25T12:03:13;5.28;;;4.25;;
53835;SDS011;39737;43.334;21.936;2023-04-25T12:06:02;7.32;;;4.15;;
53835;SDS011;39737;43.334;21.936;2023-04-25T12:09:02;7.38;;;4.40;;
53835;SDS011;39737;43.334;21.936;2023-04-25T12:11:56;5.68;;;4.13;;
53835;SDS011;39737;43.334;21.936;2023-04-25T12:14:47;4.43;;;3.83;;
53835;SDS011;39737;43.334;21.936;2023-04-25T12:17:34;7.55;;;4.10;;
53835;SDS011;39737;43.334;21.936;2023-04-25T12:20:21;4.45;;;3.50;;
53835;SDS011;39737;43.334;21.936;2023-04-25T12:23:28;8.27;;;4.28;;
53835;SDS011;39737;43.334;21.936;2023-04-25T12:26:17;8.00;;;3.67;;
53835;SDS011;39737;43.334;21.936;2023-04-25T12:29:14;6.22;;;3.58;;
53835;SDS011;39737;43.334;21.936;2023-04-25T12:32:19;4.78;;;3.60;;
53835;SDS011;39737;43.334;21.936;2023-04-25T12:35:05;3.25;;;2.75;;
53835;SDS011;39737;43.334;21.936;2023-04-25T12:37:52;4.75;;;2.80;;
53835;SDS011;39737;43.334;21.936;2023-04-25T12:40:38;4.28;;;3.15;;
53835;SDS011;39737;43.334;21.936;2023-04-25T12:43:24;4.78;;;2.42;;
53835;SDS011;39737;43.334;21.936;2023-04-25T12:46:10;2.67;;;2.42;;
53835;SDS011;39737;43.334;21.936;2023-04-25T12:48:56;2.50;;;2.30;;
53835;SDS011;39737;43.334;21.936;2023-04-25T12:51:56;2.97;;;2.40;;
53835;SDS011;39737;43.334;21.936;2023-04-25T12:54:42;5.35;;;2.72;;
53835;SDS011;39737;43.334;21.936;2023-04-25T12:57:29;4.28;;;2.28;;
53835;SDS011;39737;43.334;21.936;2023-04-25T13:00:16;3.88;;;3.03;;
53835;SDS011;39737;43.334;21.936;2023-04-25T13:03:24;5.47;;;2.58;;
53835;SDS011;39737;43.334;21.936;2023-04-25T13:06:11;4.22;;;2.95;;
53835;SDS011;39737;43.334;21.936;2023-04-25T13:08:58;3.38;;;2.60;;
53835;SDS011;39737;43.334;21.936;2023-04-25T13:11:44;2.72;;;2.22;;
53835;SDS011;39737;43.334;21.936;2023-04-25T13:14:32;3.45;;;2.22;;
53835;SDS011;39737;43.334;21.936;2023-04-25T13:17:18;3.40;;;2.58;;
53835;SDS011;39737;43.334;21.936;2023-04-25T13:20:04;3.55;;;2.47;;
53835;SDS011;39737;43.334;21.936;2023-04-25T13:22:55;4.35;;;2.58;;
53835;SDS011;39737;43.334;21.936;2023-04-25T13:25:42;5.03;;;2.63;;
53835;SDS011;39737;43.334;21.936;2023-04-25T13:28:28;3.63;;;3.25;;
53835;SDS011;39737;43.334;21.936;2023-04-25T13:31:14;11.07;;;2.65;;
53835;SDS011;39737;43.334;21.936;2023-04-25T13:34:03;7.55;;;4.10;;
53835;SDS011;39737;43.334;21.936;2023-04-25T13:36:49;6.53;;;3.17;;
53835;SDS011;39737;43.334;21.936;2023-04-25T13:39:35;3.65;;;3.20;;
53835;SDS011;39737;43.334;21.936;2023-04-25T13:42:22;5.00;;;3.70;;
53835;SDS011;39737;43.334;21.936;2023-04-25T13:45:09;3.70;;;2.88;;
53835;SDS011;39737;43.334;21.936;2023-04-25T13:47:55;4.43;;;2.53;;
53835;SDS011;39737;43.334;21.936;2023-04-25T13:50:41;10.43;;;3.97;;
53835;SDS011;39737;43.334;21.936;2023-04-25T13:53:27;4.10;;;3.13;;
53835;SDS011;39737;43.334;21.936;2023-04-25T13:56:14;3.95;;;2.75;;
53835;SDS011;39737;43.334;21.936;2023-04-25T13:59:00;5.10;;;3.45;;
53835;SDS011;39737;43.334;21.936;2023-04-25T14:01:46;5.22;;;3.78;;
53835;SDS011;39737;43.334;21.936;2023-04-25T14:04:32;10.25;;;4.88;;
53835;SDS011;39737;43.334;21.936;2023-04-25T14:07:18;4.90;;;3.58;;
53835;SDS011;39737;43.334;21.936;2023-04-25T14:10:06;5.15;;;4.00;;
53835;SDS011;39737;43.334;21.936;2023-04-25T14:12:52;4.75;;;3.88;;
53835;SDS011;39737;43.334;21.936;2023-04-25T14:15:41;5.05;;;4.28;;
53835;SDS011;39737;43.334;21.936;2023-04-25T14:18:27;5.57;;;4.43;;
53835;SDS011;39737;43.334;21.936;2023-04-25T14:21:13;11.18;;;4.93;;
53835;SDS011;39737;43.334;21.936;2023-04-25T14:24:05;18.60;;;9.80;;
53835;SDS011;39737;43.334;21.936;2023-04-25T14:26:54;18.92;;;8.25;;
53835;SDS011;39737;43.334;21.936;2023-04-25T14:29:41;9.60;;;6.13;;
53835;SDS011;39737;43.334;21.936;2023-04-25T14:32:27;18.58;;;9.98;;
53835;SDS011;39737;43.334;21.936;2023-04-25T14:35:13;19.20;;;8.30;;
53835;SDS011;39737;43.334;21.936;2023-04-25T14:37:59;18.13;;;7.38;;
53835;SDS011;39737;43.334;21.936;2023-04-25T14:40:46;25.25;;;10.55;;
53835;SDS011;39737;43.334;21.936;2023-04-25T14:43:32;23.10;;;8.05;;
53835;SDS011;39737;43.334;21.936;2023-04-25T14:46:19;13.23;;;5.88;;
53835;SDS011;39737;43.334;21.936;2023-04-25T14:49:05;16.05;;;8.18;;
53835;SDS011;39737;43.334;21.936;2023-04-25T14:51:51;20.52;;;10.77;;
53835;SDS011;39737;43.334;21.936;2023-04-25T14:54:37;16.90;;;8.75;;
53835;SDS011;39737;43.334;21.936;2023-04-25T14:57:23;50.88;;;18.50;;
53835;SDS011;39737;43.334;21.936;2023-04-25T15:00:10;9.45;;;6.75;;
53835;SDS011;39737;43.334;21.936;2023-04-25T15:02:59;26.67;;;11.70;;
53835;SDS011;39737;43.334;21.936;2023-04-25T15:05:46;25.85;;;11.63;;
53835;SDS011;39737;43.334;21.936;2023-04-25T15:08:32;15.05;;;7.72;;
53835;SDS011;39737;43.334;21.936;2023-04-25T15:11:19;17.90;;;8.18;;
53835;SDS011;39737;43.334;21.936;2023-04-25T15:14:06;10.70;;;7.15;;
53835;SDS011;39737;43.334;21.936;2023-04-25T15:16:52;20.98;;;11.80;;
53835;SDS011;39737;43.334;21.936;2023-04-25T15:19:38;16.45;;;8.23;;
53835;SDS011;39737;43.334;21.936;2023-04-25T15:22:24;16.75;;;9.55;;
53835;SDS011;39737;43.334;21.936;2023-04-25T15:25:10;17.92;;;10.82;;
53835;SDS011;39737;43.334;21.936;2023-04-25T15:27:57;21.95;;;11.32;;
53835;SDS011;39737;43.334;21.936;2023-04-25T15:30:43;23.23;;;12.07;;
53835;SDS011;39737;43.334;21.936;2023-04-25T15:33:29;35.08;;;12.77;;
53835;SDS011;39737;43.334;21.936;2023-04-25T15:36:15;45.13;;;18.52;;
53835;SDS011;39737;43.334;21.936;2023-04-25T15:39:03;16.48;;;9.40;;
53835;SDS011;39737;43.334;21.936;2023-04-25T15:41:50;22.15;;;10.38;;
53835;SDS011;39737;43.334;21.936;2023-04-25T15:44:36;23.83;;;13.13;;
53835;SDS011;39737;43.334;21.936;2023-04-25T15:47:22;28.70;;;14.02;;
53835;SDS011;39737;43.334;21.936;2023-04-25T15:50:08;20.63;;;11.88;;
53835;SDS011;39737;43.334;21.936;2023-04-25T15:52:54;18.73;;;9.27;;
53835;SDS011;39737;43.334;21.936;2023-04-25T15:55:40;12.05;;;7.88;;
53835;SDS011;39737;43.334;21.936;2023-04-25T15:58:26;44.85;;;17.40;;
53835;SDS011;39737;43.334;21.936;2023-04-25T16:01:12;25.17;;;10.95;;
53835;SDS011;39737;43.334;21.936;2023-04-25T16:03:59;18.20;;;10.63;;
53835;SDS011;39737;43.334;21.936;2023-04-25T16:06:46;80.55;;;36.95;;
53835;SDS011;39737;43.334;21.936;2023-04-25T16:09:32;24.80;;;14.60;;
53835;SDS011;39737;43.334;21.936;2023-04-25T16:12:20;13.73;;;7.95;;
53835;SDS011;39737;43.334;21.936;2023-04-25T16:15:06;20.20;;;11.07;;
53835;SDS011;39737;43.334;21.936;2023-04-25T16:17:52;24.98;;;13.80;;
53835;SDS011;39737;43.334;21.936;2023-04-25T16:20:38;14.82;;;9.43;;
53835;SDS011;39737;43.334;21.936;2023-04-25T16:23:44;23.52;;;13.30;;
53835;SDS011;39737;43.334;21.936;2023-04-25T16:26:30;16.95;;;10.35;;
53835;SDS011;39737;43.334;21.936;2023-04-25T16:29:16;3.15;;;2.00;;
53835;SDS011;39737;43.334;21.936;2023-04-25T16:32:04;18.90;;;9.90;;
53835;SDS011;39737;43.334;21.936;2023-04-25T16:34:51;13.50;;;8.80;;
53835;SDS011;39737;43.334;21.936;2023-04-25T16:37:37;15.88;;;8.27;;
53835;SDS011;39737;43.334;21.936;2023-04-25T16:40:23;8.65;;;6.00;;
53835;SDS011;39737;43.334;21.936;2023-04-25T16:43:10;29.25;;;8.30;;
53835;SDS011;39737;43.334;21.936;2023-04-25T16:45:56;11.25;;;7.10;;
53835;SDS011;39737;43.334;21.936;2023-04-25T16:48:42;17.23;;;7.72;;